»·PEaware :: N413C KRAL-KTOA

N413C :: KRAL-KTOA

FLIGHT INFORMATION

Flight Status: Arrived
Operator: Privately registered:
United States
More flights under this callsign
Pilot: Alec D. (17934)
Aircraft: PIPER PA-28 CHEROKEE ARCHER
(P28A)
More flights by this aircraft type
Origin: KRAL Riverside Mun
United States
Destination: KTOA Zamperini
United States
More flights between these airports :: More routes between these airports
Route: PDZ PDZ270/015 DOWDD V394 SLI
File this flight plan on PilotEdge
Remarks:
Altitude:
(Current/Filed)
4,000ft
Speed:
(Current/Filed)
115kts
Departed: 04-Sep-19 03:54 PM
Arrived: 04-Sep-19 04:29 PM
Distance/Time
Traveled:
46nm/0:35
Distance/Time
To Go:
Arrived

Flight Plot

Page will automatically refresh every two minutes.

Flight plan parsing failed; only flown route is shown


Map Options




Map Legend


Flown Route
Filed Route
Departure Airport
Arrival Airport
Navaid (VOR, NDB)
Fix

Horizontal Profiles

Position Reports

Time Latitude Longitude Heading Altitude Ground
Speed
04-Sep-19 15:26 33.951043 -117.446346 285 820ft 0kts
04-Sep-19 15:27 33.951043 -117.446346 285 820ft 0kts
04-Sep-19 15:28 33.951043 -117.446346 285 820ft 0kts
04-Sep-19 15:29 33.951043 -117.446346 285 820ft 0kts
04-Sep-19 15:30 33.951043 -117.446346 285 820ft 0kts
04-Sep-19 15:31 33.951043 -117.446346 285 820ft 0kts
04-Sep-19 15:32 33.951043 -117.446347 285 820ft 0kts
04-Sep-19 15:33 33.951045 -117.446353 284 820ft 0kts
04-Sep-19 15:34 33.951046 -117.446359 284 820ft 0kts
04-Sep-19 15:35 33.951047 -117.446365 284 820ft 0kts
04-Sep-19 15:36 33.951048 -117.446370 284 820ft 0kts
04-Sep-19 15:37 33.951050 -117.446376 284 820ft 0kts
04-Sep-19 15:38 33.951051 -117.446382 284 820ft 0kts
04-Sep-19 15:39 33.951052 -117.446388 284 820ft 0kts
04-Sep-19 15:40 33.951054 -117.446394 284 820ft 0kts
04-Sep-19 15:41 33.951055 -117.446400 284 820ft 0kts
04-Sep-19 15:42 33.951056 -117.446406 284 820ft 0kts
04-Sep-19 15:43 33.951057 -117.446412 284 820ft 0kts
04-Sep-19 15:44 33.951059 -117.446421 284 820ft 0kts
04-Sep-19 15:45 33.951782 -117.445020 101 820ft 13kts
04-Sep-19 15:46 33.950814 -117.440043 102 820ft 2kts
04-Sep-19 15:47 33.950008 -117.435929 103 820ft 15kts
04-Sep-19 15:48 33.950055 -117.434984 26 820ft 0kts
04-Sep-19 15:49 33.950078 -117.434970 26 820ft 0kts
04-Sep-19 15:50 33.950092 -117.434961 26 820ft 0kts
04-Sep-19 15:51 33.950094 -117.434960 26 820ft 0kts
04-Sep-19 15:52 33.950260 -117.434911 11 820ft 7kts
04-Sep-19 15:53 33.954290 -117.452425 281 1150ft 76kts
04-Sep-19 15:54 33.959268 -117.477398 278 1831ft 78kts
04-Sep-19 15:55 33.960670 -117.502256 224 2474ft 77kts
04-Sep-19 15:56 33.939952 -117.515815 208 2994ft 86kts
04-Sep-19 15:58 33.919645 -117.531722 243 3487ft 88kts
04-Sep-19 15:59 33.924195 -117.560412 285 3956ft 90kts
04-Sep-19 16:00 33.932026 -117.594843 286 4109ft 123kts
04-Sep-19 16:01 33.941932 -117.636438 285 4001ft 128kts
04-Sep-19 16:02 33.951162 -117.676687 282 4051ft 127kts
04-Sep-19 16:03 33.958547 -117.719208 281 4000ft 121kts
04-Sep-19 16:04 33.968742 -117.757330 286 4030ft 122kts
04-Sep-19 16:05 33.977731 -117.796458 284 3948ft 118kts
04-Sep-19 16:06 33.985830 -117.832332 285 4093ft 119kts
04-Sep-19 16:07 33.963068 -117.855264 203 3994ft 121kts
04-Sep-19 16:08 33.932761 -117.869213 201 3946ft 111kts
04-Sep-19 16:09 33.904553 -117.881479 198 3947ft 108kts
04-Sep-19 16:10 33.875796 -117.889839 196 4012ft 107kts
04-Sep-19 16:11 33.846932 -117.900617 195 4026ft 109kts
04-Sep-19 16:12 33.820639 -117.916375 222 4062ft 104kts
04-Sep-19 16:13 33.797290 -117.940285 222 3995ft 121kts
04-Sep-19 16:14 33.770010 -117.968311 222 3545ft 132kts
04-Sep-19 16:15 33.742303 -117.996474 222 3059ft 128kts
04-Sep-19 16:15 33.720809 -118.017807 222 3063ft 115kts
04-Sep-19 16:17 33.691158 -118.047485 222 2634ft 118kts
04-Sep-19 16:18 33.666740 -118.072805 223 2135ft 113kts
04-Sep-19 16:18 33.657756 -118.095234 281 2139ft 84kts
04-Sep-19 16:19 33.664113 -118.123191 279 2086ft 92kts
04-Sep-19 16:21 33.682678 -118.153659 302 2081ft 102kts
04-Sep-19 16:21 33.696985 -118.176024 306 2026ft 101kts
04-Sep-19 16:22 33.714792 -118.201832 305 2003ft 97kts
04-Sep-19 16:24 33.732571 -118.231552 307 2010ft 93kts
04-Sep-19 16:24 33.747017 -118.250900 304 1986ft 90kts
04-Sep-19 16:25 33.762525 -118.275610 304 1560ft 91kts
04-Sep-19 16:26 33.778012 -118.299599 303 930ft 87kts
04-Sep-19 16:27 33.792699 -118.322152 302 433ft 85kts
04-Sep-19 16:28 33.803158 -118.338286 305 105ft 32kts
04-Sep-19 16:29 33.805714 -118.343079 286 105ft 0kts
04-Sep-19 16:30 33.805672 -118.345580 222 105ft 15kts
04-Sep-19 16:31 33.804475 -118.346705 216 105ft 0kts
04-Sep-19 16:32 33.804475 -118.346706 216 105ft 0kts
04-Sep-19 16:33 33.804475 -118.346706 216 105ft 0kts
04-Sep-19 16:34 33.804475 -118.346706 216 105ft 0kts

Navigation Log

Ident Type
Flight plan parsing failed, navigation log unavailable